This is the latest recevied weather packets stored in our database for station/object KO5MO-4. If no packets are shown the sender has not sent any weather packets the latest 10 day(s).
| Time | Temp. | Humidity | Pressure | Rain* | Wind** | Luminosity | Snow |
|---|---|---|---|---|---|---|---|
| 1777381282 | 9.44° C | 59% | 1012.4 hPa | 0 mm | - | - | - |
| 1777380982 | 9.44° C | 56% | 1012.3 hPa | 0 mm | - | - | - |
| 1777380682 | 9.44° C | 57% | 1012.3 hPa | 0 mm | - | - | - |
| 1777380382 | 10° C | 58% | 1012.2 hPa | 0 mm | - | - | - |
| 1777378582 | 10.56° C | 52% | 1011.7 hPa | 0 mm | - | - | - |
| 1777378282 | 10° C | 53% | 1011.6 hPa | 0 mm | - | - | - |
| 1777376482 | 10.56° C | 51% | 1011.5 hPa | 0 mm | - | - | - |
| 1777375582 | 10.56° C | 52% | 1011.5 hPa | 0 mm | - | - | - |
| 1777375282 | 10.56° C | 52% | 1011.4 hPa | 0 mm | - | - | - |
| 1777374982 | 10.56° C | 52% | 1011.3 hPa | 0 mm | - | - | - |
| 1777374382 | 10.56° C | 49% | 1011.4 hPa | 0 mm | - | - | - |
| 1777374082 | 10.56° C | 49% | 1011.4 hPa | 0 mm | - | - | - |
| 1777372882 | 11.67° C | 46% | 1011.3 hPa | 0 mm | - | - | - |
| 1777372582 | 11.67° C | 46% | 1011.4 hPa | 0 mm | - | - | - |
| 1777371982 | 12.22° C | 46% | 1011.4 hPa | 0 mm | - | - | - |
| 1777370782 | 11.67° C | 45% | 1011.2 hPa | 0 mm | - | - | - |
| 1777370482 | 12.22° C | 45% | 1011.1 hPa | 0 mm | - | - | - |
| 1777368382 | 12.78° C | 43% | 1011.2 hPa | 0 mm | - | - | - |
| 1777368082 | 12.78° C | 43% | 1011.2 hPa | 0 mm | - | - | - |
| 1777367782 | 12.78° C | 43% | 1011.2 hPa | 0 mm | - | - | - |
| 1777367482 | 12.78° C | 43% | 1011.3 hPa | 0 mm | - | - | - |
| 1777367182 | 12.78° C | 43% | 1011.3 hPa | 0 mm | - | - | - |
| 1777366882 | 12.78° C | 43% | 1011.4 hPa | 0 mm | - | - | - |
| 1777366582 | 12.78° C | 42% | 1011.4 hPa | 0 mm | - | - | - |
| 1777366282 | 12.78° C | 41% | 1011.4 hPa | 0 mm | - | - | - |
* Rain latest hour (hover to see other rain measurements)
** Current wind speed in m/s (hover to see current wind gust speed)